createdAt,value
2024-04-08T02:22:23.841Z,101345.16
2024-04-08T02:25:10.869Z,101351.25
2024-04-08T02:27:51.919Z,101337.72
2024-04-08T02:30:43.845Z,101338.78
2024-04-08T02:33:23.905Z,101328.88
2024-04-08T02:36:11.852Z,101331.56
2024-04-08T02:38:51.930Z,101321.22
2024-04-08T02:41:38.891Z,101323.97
2024-04-08T02:44:19.100Z,101324.31
2024-04-08T02:47:05.833Z,101315.59
2024-04-08T02:49:45.929Z,101318.63
2024-04-08T02:52:32.800Z,101310.19
2024-04-08T02:55:12.976Z,101309.66
2024-04-08T02:57:59.797Z,101311.09
2024-04-08T03:00:53.825Z,101297.66
2024-04-08T03:03:40.809Z,101298.53
2024-04-08T03:06:22.878Z,101303.22
2024-04-08T03:09:12.749Z,101306.03
2024-04-08T03:11:52.869Z,101306.78
2024-04-08T03:14:39.860Z,101305.50
2024-04-08T03:17:20.022Z,101313.97
2024-04-08T03:20:13.717Z,101313.59
2024-04-08T03:22:54.176Z,101313.25
2024-04-08T03:25:40.753Z,101317.34
2024-04-08T03:28:21.188Z,101319.53
2024-04-08T03:31:08.750Z,101312.97
2024-04-08T03:33:49.164Z,101325.16
2024-04-08T03:36:35.785Z,101321.34
2024-04-08T03:39:16.146Z,101328.13
2024-04-08T03:42:04.766Z,101332.53
2024-04-08T03:44:50.132Z,101330.53
2024-04-08T03:47:36.917Z,101329.00
2024-04-08T03:50:23.758Z,101327.00
2024-04-08T03:53:04.088Z,101329.97
2024-04-08T03:55:50.734Z,101329.16
2024-04-08T03:58:30.888Z,101328.41
2024-04-08T04:01:18.729Z,101322.84
2024-04-08T04:03:58.822Z,101319.69
2024-04-08T04:06:45.800Z,101329.38
2024-04-08T04:09:25.786Z,101331.28
2024-04-08T04:12:14.721Z,101337.06
2024-04-08T04:14:55.485Z,101338.50
2024-04-08T04:17:42.845Z,101339.53
2024-04-08T04:20:30.721Z,101354.69
2024-04-08T04:23:17.699Z,101346.34
2024-04-08T04:26:08.688Z,101339.22
2024-04-08T04:28:49.008Z,101336.91
2024-04-08T04:31:35.673Z,101345.22
2024-04-08T04:34:16.160Z,101349.03
2024-04-08T04:37:02.663Z,101346.25
2024-04-08T04:39:49.746Z,101347.56
2024-04-08T04:42:29.689Z,101351.16
2024-04-08T04:45:16.691Z,101351.34
2024-04-08T04:48:03.748Z,101367.78
2024-04-08T04:50:50.645Z,101364.50
2024-04-08T04:53:30.746Z,101371.03
2024-04-08T04:56:17.703Z,101364.84
2024-04-08T04:58:57.741Z,101369.72
2024-04-08T05:01:51.681Z,101365.03
2024-04-08T05:04:32.075Z,101375.81
2024-04-08T05:07:18.608Z,101359.38
2024-04-08T05:09:59.101Z,101360.88
2024-04-08T05:12:45.636Z,101368.94
2024-04-08T05:15:27.792Z,101369.22
2024-04-08T05:18:14.686Z,101365.84
2024-04-08T05:21:01.784Z,101368.22
2024-04-08T05:23:41.597Z,101363.47
2024-04-08T05:26:28.701Z,101363.16
2024-04-08T05:29:08.544Z,101363.72
2024-04-08T05:31:55.613Z,101359.91
2024-04-08T05:34:36.319Z,101355.66
2024-04-08T05:37:23.611Z,101352.41
2024-04-08T05:40:10.594Z,101360.94
2024-04-08T05:42:50.963Z,101360.19
2024-04-08T05:45:37.602Z,101356.84
2024-04-08T05:48:24.539Z,101367.69
2024-04-08T05:51:05.278Z,101374.09
2024-04-08T05:53:52.642Z,101368.09
2024-04-08T05:56:32.813Z,101374.59
2024-04-08T05:59:19.668Z,101370.03
2024-04-08T06:02:07.668Z,101370.19
2024-04-08T06:04:52.141Z,101371.03
2024-04-08T06:07:33.235Z,101372.53
2024-04-08T06:10:20.698Z,101390.16
2024-04-08T06:13:01.244Z,101382.03
2024-04-08T06:15:48.531Z,101374.75
2024-04-08T06:18:29.237Z,101383.31
2024-04-08T06:21:16.553Z,101388.34
2024-04-08T06:23:57.051Z,101396.97
2024-04-08T06:26:43.562Z,101396.97
2024-04-08T06:29:30.555Z,101396.50
2024-04-08T06:32:10.664Z,101396.19
2024-04-08T06:34:57.512Z,101400.22
2024-04-08T06:37:37.733Z,101401.84
2024-04-08T06:40:24.537Z,101392.97
2024-04-08T06:43:04.634Z,101400.72
2024-04-08T06:45:51.528Z,101409.56
2024-04-08T06:48:31.611Z,101399.50
2024-04-08T06:51:18.565Z,101399.91
2024-04-08T06:54:05.574Z,101402.03
2024-04-08T06:56:52.579Z,101406.34
2024-04-08T06:59:32.584Z,101400.81
2024-04-08T07:02:19.501Z,101413.50
2024-04-08T07:05:06.494Z,101408.38
2024-04-08T07:07:46.983Z,101417.25
2024-04-08T07:10:33.468Z,101422.47
2024-04-08T07:13:20.565Z,101408.72
2024-04-08T07:16:04.508Z,101418.88
2024-04-08T07:18:44.739Z,101417.47
2024-04-08T07:21:32.503Z,101412.91
2024-04-08T07:24:19.591Z,101423.03
2024-04-08T07:26:59.505Z,101427.59
2024-04-08T07:29:39.862Z,101419.88
2024-04-08T07:32:26.494Z,101416.44
2024-04-08T07:35:17.693Z,101429.28
2024-04-08T07:37:57.476Z,101425.03
2024-04-08T07:40:37.858Z,101428.19
2024-04-08T07:43:24.443Z,101433.00
2024-04-08T07:46:08.592Z,101426.44
2024-04-08T07:48:56.448Z,101425.56
2024-04-08T07:51:36.993Z,101432.09
2024-04-08T07:54:23.476Z,101434.59
2024-04-08T07:57:10.887Z,101437.25
2024-04-08T07:59:50.455Z,101433.75
2024-04-08T08:02:37.404Z,101427.00
2024-04-08T08:05:24.427Z,101431.44
2024-04-08T08:08:05.129Z,101447.09
2024-04-08T08:10:53.456Z,101443.19
2024-04-08T08:13:41.441Z,101447.88
2024-04-08T08:16:21.616Z,101435.97
2024-04-08T08:19:08.470Z,101435.94
2024-04-08T08:21:55.533Z,101436.56
2024-04-08T08:24:35.356Z,101436.72
2024-04-08T08:27:15.885Z,101445.56
2024-04-08T08:30:05.537Z,101439.47
2024-04-08T08:32:52.530Z,101441.09
2024-04-08T08:35:39.551Z,101434.88
2024-04-08T08:38:21.147Z,101434.69
2024-04-08T08:41:20.420Z,101431.72
2024-04-08T08:44:03.502Z,101438.59
2024-04-08T08:46:50.551Z,101433.44
2024-04-08T08:49:33.660Z,101433.75
2024-04-08T08:52:20.361Z,101422.53
2024-04-08T08:55:00.881Z,101424.53
2024-04-08T08:57:48.411Z,101418.31
2024-04-08T09:00:36.428Z,101415.22
2024-04-08T09:03:28.336Z,101414.84
2024-04-08T09:06:12.192Z,101407.41
2024-04-08T09:08:59.351Z,101412.56
2024-04-08T09:11:54.374Z,101412.59
2024-04-08T09:14:35.491Z,101405.94
2024-04-08T09:17:23.335Z,101417.06
2024-04-08T09:20:05.425Z,101414.59
2024-04-08T09:22:53.336Z,101408.59
2024-04-08T09:25:41.402Z,101399.41
2024-04-08T09:28:21.772Z,101397.31
2024-04-08T09:31:08.338Z,101397.00
2024-04-08T09:33:50.315Z,101389.03
2024-04-08T09:36:38.425Z,101405.91
2024-04-08T09:39:20.251Z,101408.66
2024-04-08T09:42:08.427Z,101403.28
2024-04-08T09:44:49.486Z,101394.47
2024-04-08T09:47:41.475Z,101388.38
2024-04-08T09:50:31.303Z,101396.53
2024-04-08T09:53:18.319Z,101395.94
2024-04-08T09:56:12.458Z,101393.75
2024-04-08T09:59:25.333Z,101393.47
2024-04-08T10:02:28.274Z,101388.63
2024-04-08T10:05:11.441Z,101391.16
2024-04-08T10:07:58.292Z,101391.53
2024-04-08T10:10:39.380Z,101388.38
2024-04-08T10:13:26.313Z,101382.16
2024-04-08T10:16:33.339Z,101383.03
2024-04-08T10:19:21.689Z,101370.72
2024-04-08T10:22:09.347Z,101379.97
2024-04-08T10:24:58.528Z,101379.91
2024-04-08T10:27:39.924Z,101364.94
2024-04-08T10:30:29.314Z,101364.81
2024-04-08T10:33:18.930Z,101368.38
2024-04-08T10:35:59.518Z,101372.28
2024-04-08T10:38:46.386Z,101377.09
2024-04-08T10:41:34.335Z,101374.13
2024-04-08T10:44:21.376Z,101375.69
2024-04-08T10:47:02.715Z,101367.38
2024-04-08T10:49:49.291Z,101356.50
2024-04-08T10:52:29.397Z,101370.66
2024-04-08T10:55:17.284Z,101363.34
2024-04-08T10:58:04.263Z,101363.94
2024-04-08T11:00:53.270Z,101359.75
2024-04-08T11:03:34.405Z,101366.03
2024-04-08T11:06:23.868Z,101363.66
2024-04-08T11:09:11.281Z,101360.97
2024-04-08T11:11:58.290Z,101365.50
2024-04-08T11:14:45.314Z,101365.94
2024-04-08T11:17:33.290Z,101357.66
2024-04-08T11:20:21.238Z,101357.63
2024-04-08T11:23:20.249Z,101349.97
2024-04-08T11:26:07.229Z,101345.38
2024-04-08T11:28:47.336Z,101340.94
2024-04-08T11:31:34.234Z,101332.09
2024-04-08T11:34:14.328Z,101324.47
2024-04-08T11:37:04.583Z,101317.66
2024-04-08T11:39:46.296Z,101320.03
2024-04-08T11:42:33.275Z,101320.09
2024-04-08T11:45:14.410Z,101314.72
2024-04-08T11:48:08.610Z,101310.50
2024-04-08T11:50:48.617Z,101306.53
2024-04-08T11:53:35.183Z,101300.56
2024-04-08T11:56:15.743Z,101288.81
2024-04-08T11:59:02.200Z,101293.19
2024-04-08T12:01:46.141Z,101294.63
2024-04-08T12:04:33.224Z,101290.81
2024-04-08T12:07:15.085Z,101295.47
2024-04-08T12:10:02.171Z,101286.16
2024-04-08T12:12:49.276Z,101284.91
2024-04-08T12:15:36.178Z,101281.41
2024-04-08T12:18:23.350Z,101282.91
2024-04-08T12:21:17.278Z,101286.16
2024-04-08T12:24:04.368Z,101278.22
2024-04-08T12:26:44.179Z,101279.34
2024-04-08T12:29:31.199Z,101274.50
2024-04-08T12:32:11.280Z,101267.19
2024-04-08T12:34:59.210Z,101277.03
2024-04-08T12:37:39.244Z,101273.78
2024-04-08T12:40:26.124Z,101266.31
2024-04-08T12:43:06.251Z,101269.31
2024-04-08T12:45:53.110Z,101265.19
2024-04-08T12:48:42.542Z,101263.91
2024-04-08T12:51:24.181Z,101264.53
2024-04-08T12:54:11.292Z,101251.53
2024-04-08T12:56:51.187Z,101260.28
2024-04-08T12:59:38.253Z,101257.50
2024-04-08T13:02:18.156Z,101267.59
2024-04-08T13:04:58.515Z,101249.91
2024-04-08T13:07:46.076Z,101244.94
2024-04-08T13:10:26.641Z,101246.84
2024-04-08T13:13:13.136Z,101249.72
2024-04-08T13:15:53.599Z,101248.53
2024-04-08T13:18:40.127Z,101243.50
2024-04-08T13:21:39.292Z,101238.00
2024-04-08T13:24:26.262Z,101250.41
2024-04-08T13:27:13.333Z,101246.25
2024-04-08T13:29:53.130Z,101247.13
2024-04-08T13:32:40.294Z,101236.13
2024-04-08T13:35:27.103Z,101241.38
2024-04-08T13:38:09.766Z,101239.91
2024-04-08T13:40:57.113Z,101242.97
2024-04-08T13:43:45.676Z,101240.16
2024-04-08T13:46:26.099Z,101238.66
2024-04-08T13:49:06.511Z,101239.91
2024-04-08T13:51:53.081Z,101235.13
2024-04-08T13:54:34.757Z,101229.66
2024-04-08T14:00:33.303Z,101228.91
2024-04-08T14:03:13.114Z,101240.38
2024-04-08T14:18:53.953Z,101214.91
2024-04-08T14:21:40.842Z,101217.81
2024-04-08T14:24:27.878Z,101221.59
2024-04-08T14:27:08.283Z,101215.66
2024-04-08T14:30:00.445Z,101216.78
2024-04-08T14:32:41.286Z,101210.06
2024-04-08T14:35:27.842Z,101204.94
2024-04-08T14:38:38.810Z,101198.03
2024-04-08T14:41:15.802Z,101206.81
2024-04-08T14:44:10.442Z,101198.38
2024-04-08T14:46:58.895Z,101200.28
2024-04-08T14:49:45.789Z,101207.13
2024-04-08T14:52:32.999Z,101196.81
2024-04-08T14:55:26.138Z,101206.16
2024-04-08T14:58:05.985Z,101207.44
2024-04-08T15:00:59.925Z,101210.31
2024-04-08T15:03:41.871Z,101197.41
2024-04-08T15:06:28.849Z,101203.72
2024-04-08T15:09:11.972Z,101206.34
2024-04-08T15:11:58.934Z,101206.53
2024-04-08T15:14:45.869Z,101207.34
2024-04-08T15:17:32.826Z,101204.81
2024-04-08T15:20:13.850Z,101209.69
2024-04-08T15:23:00.767Z,101200.50
2024-04-08T15:25:40.880Z,101197.44
2024-04-08T15:28:27.825Z,101194.91
2024-04-08T15:31:14.888Z,101199.56
2024-04-08T15:33:54.928Z,101188.84
2024-04-08T15:36:35.243Z,101187.22
2024-04-08T15:39:21.843Z,101187.06
2024-04-08T15:42:02.211Z,101181.31
2024-04-08T15:44:48.797Z,101181.81
2024-04-08T15:47:29.231Z,101172.28
2024-04-08T15:50:16.762Z,101180.22
2024-04-08T15:53:05.013Z,101176.41
2024-04-08T15:55:51.750Z,101170.16
2024-04-08T15:58:38.905Z,101167.03
2024-04-08T16:01:18.703Z,101159.81
2024-04-08T16:04:06.015Z,101161.44
2024-04-08T16:06:45.853Z,101167.03
2024-04-08T16:09:27.149Z,101164.06
2024-04-08T16:12:13.740Z,101163.13
2024-04-08T16:14:54.116Z,101169.13
2024-04-08T16:17:40.756Z,101167.41
2024-04-08T16:20:27.765Z,101171.75
2024-04-08T16:23:21.682Z,101158.47
2024-04-08T16:26:14.691Z,101168.22
2024-04-08T16:29:04.359Z,101163.41
2024-04-08T16:31:47.105Z,101161.28
2024-04-08T16:34:33.837Z,101167.13
2024-04-08T16:37:20.862Z,101162.09
2024-04-08T16:40:00.704Z,101166.13
2024-04-08T16:42:42.283Z,101166.41
2024-04-08T16:45:29.975Z,101159.47
2024-04-08T16:48:10.144Z,101160.78
2024-04-08T16:50:56.745Z,101164.31
2024-04-08T16:53:38.280Z,101162.50
2024-04-08T16:56:25.697Z,101161.91
2024-04-08T16:59:12.677Z,101161.47
2024-04-08T17:01:53.157Z,101162.31
2024-04-08T17:04:40.127Z,101167.81
2024-04-08T17:07:20.737Z,101181.22
2024-04-08T17:10:07.670Z,101174.88
2024-04-08T17:12:47.738Z,101170.59
2024-04-08T17:15:34.841Z,101173.41
2024-04-08T17:18:30.698Z,101177.59
2024-04-08T17:21:17.802Z,101179.97
2024-04-08T17:23:57.717Z,101171.25
2024-04-08T17:26:44.642Z,101179.06
2024-04-08T17:29:24.810Z,101180.09
2024-04-08T17:32:11.681Z,101186.84
2024-04-08T17:34:51.689Z,101188.00
2024-04-08T17:37:40.626Z,101186.13
2024-04-08T17:40:20.726Z,101195.41
2024-04-08T17:43:07.681Z,101189.84
2024-04-08T17:45:47.731Z,101195.75
2024-04-08T17:48:36.904Z,101189.84
2024-04-08T17:51:24.780Z,101197.25
2024-04-08T17:54:11.732Z,101191.19
2024-04-08T17:56:52.623Z,101193.31
2024-04-08T17:59:33.119Z,101190.41
2024-04-08T18:02:19.587Z,101194.34
2024-04-08T18:04:59.922Z,101195.72
2024-04-08T18:07:48.589Z,101190.03
2024-04-08T18:10:28.993Z,101188.63
2024-04-08T18:13:15.609Z,101185.38
2024-04-08T18:15:55.999Z,101186.59
2024-04-08T18:18:42.854Z,101180.00
2024-04-08T18:21:23.957Z,101178.63
2024-04-08T18:24:10.599Z,101177.31
2024-04-08T18:26:51.395Z,101180.47
2024-04-08T18:29:40.560Z,101182.75
2024-04-08T18:32:22.750Z,101182.44
2024-04-08T18:35:09.563Z,101177.06
2024-04-08T18:37:57.864Z,101185.81
2024-04-08T18:40:37.586Z,101182.75
2024-04-08T18:43:18.758Z,101177.13
2024-04-08T18:46:05.592Z,101181.75
2024-04-08T18:48:59.717Z,101176.41
2024-04-08T18:51:46.753Z,101173.97
2024-04-08T18:54:26.610Z,101165.97
2024-04-08T18:57:13.662Z,101175.41
2024-04-08T18:59:53.587Z,101185.59
2024-04-08T19:02:40.539Z,101170.84
2024-04-08T19:05:28.555Z,101175.97
2024-04-08T19:08:15.513Z,101167.94
2024-04-08T19:10:55.629Z,101169.66
2024-04-08T19:13:42.522Z,101164.16
2024-04-08T19:16:32.540Z,101162.59
2024-04-08T19:19:19.748Z,101165.72
2024-04-08T19:22:06.509Z,101164.41
2024-04-08T19:24:59.604Z,101165.78
2024-04-08T19:27:41.452Z,101159.97
2024-04-08T19:30:28.512Z,101151.81
2024-04-08T19:33:15.662Z,101156.22
2024-04-08T19:36:09.558Z,101149.91
2024-04-08T19:38:56.621Z,101149.28
2024-04-08T19:41:37.532Z,101140.00
2024-04-08T19:44:24.591Z,101147.25
2024-04-08T19:47:05.890Z,101154.75
2024-04-08T19:49:53.835Z,101150.34
2024-04-08T19:52:34.599Z,101144.47
2024-04-08T19:55:21.442Z,101145.66
2024-04-08T19:58:01.601Z,101137.38
2024-04-08T20:00:50.579Z,101133.31
2024-04-08T20:03:30.707Z,101135.63
2024-04-08T20:06:17.551Z,101133.03
2024-04-08T20:09:04.517Z,101127.34
2024-04-08T20:11:55.338Z,101134.22
2024-04-08T20:14:35.471Z,101135.81
2024-04-08T20:17:15.954Z,101135.31
2024-04-08T20:20:02.459Z,101132.88
2024-04-08T20:22:56.402Z,101123.06
2024-04-08T20:25:37.125Z,101123.88
2024-04-08T20:28:24.464Z,101126.13
2024-04-08T20:31:13.594Z,101136.59
2024-04-08T20:33:53.509Z,101138.72
2024-04-08T20:36:34.209Z,101124.97
2024-04-08T20:39:22.430Z,101127.44
2024-04-08T20:42:02.852Z,101119.66
2024-04-08T20:44:49.451Z,101119.50
2024-04-08T20:47:39.611Z,101113.34
2024-04-08T20:50:19.400Z,101115.34
2024-04-08T20:53:06.540Z,101111.78
2024-04-08T20:55:46.436Z,101111.63
2024-04-08T20:58:34.550Z,101105.75
2024-04-08T21:01:16.423Z,101108.38
2024-04-08T21:03:56.990Z,101107.41
2024-04-08T21:06:44.418Z,101111.38
2024-04-08T21:09:29.904Z,101106.44
2024-04-08T21:12:18.517Z,101109.59
2024-04-08T21:15:05.740Z,101103.72
2024-04-08T21:17:54.530Z,101098.69
2024-04-08T21:20:34.442Z,101104.06
2024-04-08T21:23:21.398Z,101107.50
2024-04-08T21:26:28.431Z,101102.78
2024-04-08T21:29:15.378Z,101103.63
2024-04-08T21:32:02.498Z,101097.72
2024-04-08T21:34:42.380Z,101100.34
2024-04-08T21:37:22.768Z,101099.69
2024-04-08T21:40:09.324Z,101092.81
2024-04-08T21:42:56.392Z,101084.69
2024-04-08T21:45:36.525Z,101089.56
2024-04-08T21:48:23.567Z,101082.22
2024-04-08T21:51:06.568Z,101084.97
2024-04-08T21:53:53.387Z,101073.41
2024-04-08T21:56:40.309Z,101085.75
2024-04-08T21:59:27.432Z,101083.94
2024-04-08T22:02:14.344Z,101081.28
2024-04-08T22:05:01.410Z,101071.34
2024-04-08T22:07:41.450Z,101077.19
2024-04-08T22:10:28.316Z,101067.09
2024-04-08T22:13:08.393Z,101064.94
2024-04-08T22:15:55.465Z,101066.88
2024-04-08T22:18:43.336Z,101069.19
2024-04-08T22:21:24.004Z,101060.53
2024-04-08T22:24:11.359Z,101069.19
2024-04-08T22:26:51.848Z,101056.03
2024-04-08T22:29:41.311Z,101060.53
2024-04-08T22:32:21.711Z,101050.94
2024-04-08T22:35:12.957Z,101056.28
2024-04-08T22:37:55.692Z,101056.78
2024-04-08T22:40:42.257Z,101055.66
2024-04-08T22:43:22.646Z,101064.25
2024-04-08T22:46:09.558Z,101058.72
2024-04-08T22:48:52.781Z,101056.56
2024-04-08T22:51:40.331Z,101046.97
2024-04-08T22:54:20.857Z,101047.28
2024-04-08T22:57:08.333Z,101035.22
2024-04-08T22:59:48.680Z,101034.75
2024-04-08T23:02:35.287Z,101030.81
2024-04-08T23:05:15.713Z,101025.63
2024-04-08T23:08:09.238Z,101026.44
2024-04-08T23:10:49.680Z,101027.06
2024-04-08T23:13:36.210Z,101019.25
2024-04-08T23:16:23.241Z,101020.69
2024-04-08T23:19:10.472Z,101009.09
2024-04-08T23:21:50.254Z,101008.59
2024-04-08T23:24:37.313Z,101015.44
2024-04-08T23:27:24.241Z,101012.16
2024-04-08T23:30:12.428Z,101000.50
2024-04-08T23:32:52.322Z,101000.16
2024-04-08T23:35:39.927Z,101006.50
2024-04-08T23:38:20.269Z,101009.09
2024-04-08T23:41:01.350Z,101000.97
2024-04-08T23:43:48.191Z,101003.06
2024-04-08T23:46:28.611Z,100999.81
2024-04-08T23:49:16.099Z,100996.22
2024-04-08T23:52:03.180Z,100990.34
2024-04-08T23:54:50.161Z,100986.41
2024-04-08T23:57:30.610Z,100982.13
